Wetterdaten: Sonntag, 13.12.2015
Datum Zeit Temp. A. Feuchte A. Luftdruck Regen Wind Richtung Richtung Sonnenschein ET UV Solar Taupunkt Windchill Windben Empfang
13.12.2015 00:00 2,4 C 92 % 1021,9 hPa 0,0 l/m 3,9 km/h (1 Bft) SW 219 0 min 0,000 mm 0,0 UV-I 0 W/m 1,2 C 2,4 C 6,4 km/h (2 Bft) 100,00 %
13.12.2015 00:05 2,3 C 92 % 1021,9 hPa 0,0 l/m 3,5 km/h (1 Bft) S-SW 211 0 min 0,000 mm 0,0 UV-I 0 W/m 1,1 C 2,3 C 6,4 km/h (2 Bft) 95,28 %
13.12.2015 00:10 2,2 C 92 % 1021,9 hPa 0,0 l/m 2,9 km/h (1 Bft) S-SW 211 0 min 0,000 mm 0,0 UV-I 0 W/m 1,0 C 2,2 C 6,4 km/h (2 Bft) 96,61 %
13.12.2015 00:15 2,3 C 93 % 1021,8 hPa 0,0 l/m 2,9 km/h (1 Bft) S-SW 211 0 min 0,000 mm 0,0 UV-I 0 W/m 1,3 C 2,3 C 4,8 km/h (1 Bft) 98,29 %
13.12.2015 00:20 2,4 C 93 % 1021,7 hPa 0,0 l/m 2,8 km/h (1 Bft) S-SW 199 0 min 0,000 mm 0,0 UV-I 0 W/m 1,4 C 2,4 C 4,8 km/h (1 Bft) 98,35 %
13.12.2015 00:25 2,6 C 93 % 1021,7 hPa 0,0 l/m 2,9 km/h (1 Bft) S-SW 211 0 min 0,000 mm 0,0 UV-I 0 W/m 1,6 C 2,6 C 4,8 km/h (1 Bft) 99,17 %
13.12.2015 00:30 2,7 C 92 % 1021,5 hPa 0,0 l/m 3,3 km/h (1 Bft) S-SW 211 0 min 0,000 mm 0,0 UV-I 0 W/m 1,5 C 2,7 C 4,8 km/h (1 Bft) 99,15 %
13.12.2015 00:35 2,7 C 92 % 1021,5 hPa 0,0 l/m 1,8 km/h (1 Bft) S-SW 211 0 min 0,000 mm 0,0 UV-I 0 W/m 1,5 C 2,7 C 3,2 km/h (1 Bft) 99,16 %
13.12.2015 00:40 2,6 C 91 % 1021,4 hPa 0,0 l/m 2,7 km/h (1 Bft) S-SW 209 0 min 0,000 mm 0,0 UV-I 0 W/m 1,3 C 2,6 C 4,8 km/h (1 Bft) 99,15 %
13.12.2015 00:45 2,3 C 92 % 1021,4 hPa 0,0 l/m 4,3 km/h (1 Bft) S-SW 192 0 min 0,000 mm 0,0 UV-I 0 W/m 1,1 C 2,3 C 4,8 km/h (1 Bft) 100,00 %
13.12.2015 00:50 1,9 C 93 % 1021,3 hPa 0,0 l/m 5,2 km/h (1 Bft) S 190 0 min 0,000 mm 0,0 UV-I 0 W/m 0,9 C 1,9 C 6,4 km/h (2 Bft) 97,52 %
13.12.2015 00:55 1,9 C 94 % 1021,3 hPa 0,0 l/m 5,9 km/h (2 Bft) S 186 0 min 0,000 mm 0,0 UV-I 0 W/m 1,0 C 1,9 C 6,4 km/h (2 Bft) 97,44 %
13.12.2015 01:00 2,2 C 93 % 1021,2 hPa 0,0 l/m 6,4 km/h (2 Bft) S 191 0 min 0,000 mm 0,0 UV-I 0 W/m 1,2 C 2,2 C 8,0 km/h (2 Bft) 95,76 %
13.12.2015 01:05 2,4 C 93 % 1021,2 hPa 0,0 l/m 7,2 km/h (2 Bft) S 188 0 min 0,000 mm 0,0 UV-I 0 W/m 1,4 C 1,6 C 9,7 km/h (2 Bft) 98,25 %
13.12.2015 01:10 2,6 C 92 % 1021,2 hPa 0,0 l/m 7,4 km/h (2 Bft) S-SW 192 0 min 0,000 mm 0,0 UV-I 0 W/m 1,4 C 1,6 C 9,7 km/h (2 Bft) 98,31 %
13.12.2015 01:15 2,7 C 91 % 1021,1 hPa 0,0 l/m 8,6 km/h (2 Bft) S-SW 192 0 min 0,000 mm 0,0 UV-I 0 W/m 1,4 C 0,7 C 11,3 km/h (2 Bft) 100,00 %
13.12.2015 01:20 2,7 C 92 % 1021,1 hPa 0,0 l/m 9,1 km/h (2 Bft) S-SW 196 0 min 0,000 mm 0,0 UV-I 0 W/m 1,5 C 0,2 C 12,9 km/h (3 Bft) 100,00 %
13.12.2015 01:25 2,8 C 91 % 1021,0 hPa 0,0 l/m 9,3 km/h (2 Bft) S 190 0 min 0,000 mm 0,0 UV-I 0 W/m 1,5 C 0,2 C 12,9 km/h (3 Bft) 100,00 %
13.12.2015 01:30 2,9 C 91 % 1021,0 hPa 0,0 l/m 9,2 km/h (2 Bft) S 183 0 min 0,000 mm 0,0 UV-I 0 W/m 1,6 C 0,4 C 14,5 km/h (3 Bft) 98,35 %
13.12.2015 01:35 2,9 C 90 % 1020,9 hPa 0,0 l/m 8,6 km/h (2 Bft) S 170 0 min 0,000 mm 0,0 UV-I 0 W/m 1,4 C 0,9 C 11,3 km/h (2 Bft) 98,29 %
13.12.2015 01:40 2,9 C 90 % 1020,8 hPa 0,0 l/m 8,0 km/h (2 Bft) S 191 0 min 0,000 mm 0,0 UV-I 0 W/m 1,4 C 1,4 C 11,3 km/h (2 Bft) 98,39 %
13.12.2015 01:45 2,8 C 91 % 1020,8 hPa 0,0 l/m 8,1 km/h (2 Bft) S 177 0 min 0,000 mm 0,0 UV-I 0 W/m 1,5 C 1,2 C 14,5 km/h (3 Bft) 97,17 %
13.12.2015 01:50 2,7 C 91 % 1020,7 hPa 0,0 l/m 7,8 km/h (2 Bft) S 185 0 min 0,000 mm 0,0 UV-I 0 W/m 1,4 C 1,4 C 12,9 km/h (3 Bft) 95,73 %
13.12.2015 01:55 2,6 C 91 % 1020,7 hPa 0,0 l/m 7,2 km/h (2 Bft) S 174 0 min 0,000 mm 0,0 UV-I 0 W/m 1,3 C 1,8 C 12,9 km/h (3 Bft) 95,76 %
13.12.2015 02:00 2,5 C 91 % 1020,7 hPa 0,0 l/m 7,2 km/h (2 Bft) S 188 0 min 0,000 mm 0,0 UV-I 0 W/m 1,2 C 1,7 C 11,3 km/h (2 Bft) 95,83 %
13.12.2015 02:05 2,5 C 91 % 1020,7 hPa 0,0 l/m 7,1 km/h (2 Bft) S 184 0 min 0,000 mm 0,0 UV-I 0 W/m 1,2 C 1,8 C 9,7 km/h (2 Bft) 96,77 %
13.12.2015 02:10 2,4 C 91 % 1020,7 hPa 0,0 l/m 5,5 km/h (1 Bft) S-SW 192 0 min 0,000 mm 0,0 UV-I 0 W/m 1,1 C 2,4 C 8,0 km/h (2 Bft) 96,58 %
13.12.2015 02:15 2,2 C 91 % 1020,7 hPa 0,0 l/m 7,2 km/h (2 Bft) S-SW 202 0 min 0,000 mm 0,0 UV-I 0 W/m 0,9 C 1,4 C 9,7 km/h (2 Bft) 97,22 %
13.12.2015 02:20 2,2 C 92 % 1020,7 hPa 0,0 l/m 6,0 km/h (2 Bft) S-SW 200 0 min 0,000 mm 0,0 UV-I 0 W/m 1,0 C 2,2 C 9,7 km/h (2 Bft) 98,39 %
13.12.2015 02:25 2,1 C 92 % 1020,7 hPa 0,0 l/m 5,9 km/h (2 Bft) S-SW 198 0 min 0,000 mm 0,0 UV-I 0 W/m 0,9 C 2,1 C 9,7 km/h (2 Bft) 96,33 %
13.12.2015 02:30 2,0 C 92 % 1020,7 hPa 0,0 l/m 4,6 km/h (1 Bft) SW 233 0 min 0,000 mm 0,0 UV-I 0 W/m 0,8 C 2,0 C 6,4 km/h (2 Bft) 99,17 %
13.12.2015 02:35 1,8 C 92 % 1020,7 hPa 0,0 l/m 4,6 km/h (1 Bft) SW 233 0 min 0,000 mm 0,0 UV-I 0 W/m 0,6 C 1,8 C 6,4 km/h (2 Bft) 98,35 %
13.12.2015 02:40 1,8 C 93 % 1020,7 hPa 0,0 l/m 3,6 km/h (1 Bft) W-SW 241 0 min 0,000 mm 0,0 UV-I 0 W/m 0,8 C 1,8 C 6,4 km/h (2 Bft) 100,00 %
13.12.2015 02:45 1,8 C 92 % 1020,7 hPa 0,0 l/m 4,1 km/h (1 Bft) W-SW 241 0 min 0,000 mm 0,0 UV-I 0 W/m 0,6 C 1,8 C 6,4 km/h (2 Bft) 96,61 %
13.12.2015 02:50 1,7 C 93 % 1020,7 hPa 0,0 l/m 4,3 km/h (1 Bft) SW 225 0 min 0,000 mm 0,0 UV-I 0 W/m 0,7 C 1,7 C 6,4 km/h (2 Bft) 98,21 %
13.12.2015 02:55 1,7 C 93 % 1020,7 hPa 0,0 l/m 5,0 km/h (1 Bft) SW 234 0 min 0,000 mm 0,0 UV-I 0 W/m 0,7 C 1,7 C 6,4 km/h (2 Bft) 100,00 %
13.12.2015 03:00 1,8 C 93 % 1020,7 hPa 0,0 l/m 3,8 km/h (1 Bft) SW 233 0 min 0,000 mm 0,0 UV-I 0 W/m 0,8 C 1,8 C 6,4 km/h (2 Bft) 98,35 %
13.12.2015 03:05 1,9 C 93 % 1020,7 hPa 0,0 l/m 2,9 km/h (1 Bft) SW 232 0 min 0,000 mm 0,0 UV-I 0 W/m 0,9 C 1,9 C 4,8 km/h (1 Bft) 98,17 %
13.12.2015 03:10 1,7 C 93 % 1020,6 hPa 0,0 l/m 3,4 km/h (1 Bft) S 180 0 min 0,000 mm 0,0 UV-I 0 W/m 0,7 C 1,7 C 4,8 km/h (1 Bft) 99,17 %
13.12.2015 03:15 1,8 C 93 % 1020,4 hPa 0,0 l/m 4,7 km/h (1 Bft) S 180 0 min 0,000 mm 0,0 UV-I 0 W/m 0,8 C 1,8 C 8,0 km/h (2 Bft) 100,00 %
13.12.2015 03:20 1,7 C 93 % 1020,4 hPa 0,0 l/m 4,9 km/h (1 Bft) S-SW 197 0 min 0,000 mm 0,0 UV-I 0 W/m 0,7 C 1,7 C 6,4 km/h (2 Bft) 97,44 %
13.12.2015 03:25 1,7 C 93 % 1020,2 hPa 0,0 l/m 6,6 km/h (2 Bft) S 190 0 min 0,000 mm 0,0 UV-I 0 W/m 0,7 C 1,5 C 11,3 km/h (2 Bft) 99,15 %
13.12.2015 03:30 1,7 C 93 % 1020,1 hPa 0,0 l/m 6,2 km/h (2 Bft) S 181 0 min 0,000 mm 0,0 UV-I 0 W/m 0,7 C 1,7 C 9,7 km/h (2 Bft) 100,00 %
13.12.2015 03:35 1,7 C 93 % 1020,3 hPa 0,0 l/m 4,4 km/h (1 Bft) S-SW 192 0 min 0,000 mm 0,0 UV-I 0 W/m 0,7 C 1,7 C 8,0 km/h (2 Bft) 97,44 %
13.12.2015 03:40 1,7 C 93 % 1020,0 hPa 0,0 l/m 7,0 km/h (2 Bft) S 182 0 min 0,000 mm 0,0 UV-I 0 W/m 0,7 C 1,1 C 9,7 km/h (2 Bft) 99,17 %
13.12.2015 03:45 1,8 C 93 % 1020,1 hPa 0,0 l/m 8,2 km/h (2 Bft) S 181 0 min 0,000 mm 0,0 UV-I 0 W/m 0,8 C 0,1 C 12,9 km/h (3 Bft) 100,00 %
13.12.2015 03:50 1,8 C 92 % 1020,2 hPa 0,0 l/m 6,5 km/h (2 Bft) S 184 0 min 0,000 mm 0,0 UV-I 0 W/m 0,6 C 1,7 C 9,7 km/h (2 Bft) 98,29 %
13.12.2015 03:55 1,7 C 92 % 1020,1 hPa 0,0 l/m 3,3 km/h (1 Bft) S-SW 205 0 min 0,000 mm 0,0 UV-I 0 W/m 0,5 C 1,7 C 6,4 km/h (2 Bft) 97,46 %
13.12.2015 04:00 1,5 C 92 % 1020,2 hPa 0,0 l/m 4,1 km/h (1 Bft) S-SW 209 0 min 0,000 mm 0,0 UV-I 0 W/m 0,3 C 1,5 C 6,4 km/h (2 Bft) 98,29 %
13.12.2015 04:05 1,3 C 93 % 1020,2 hPa 0,0 l/m 4,0 km/h (1 Bft) S-SW 209 0 min 0,000 mm 0,0 UV-I 0 W/m 0,3 C 1,3 C 6,4 km/h (2 Bft) 98,02 %
13.12.2015 04:10 1,3 C 94 % 1020,1 hPa 0,0 l/m 3,5 km/h (1 Bft) S 190 0 min 0,000 mm 0,0 UV-I 0 W/m 0,4 C 1,3 C 6,4 km/h (2 Bft) 97,46 %
13.12.2015 04:15 1,4 C 94 % 1020,2 hPa 0,0 l/m 4,0 km/h (1 Bft) S 178 0 min 0,000 mm 0,0 UV-I 0 W/m 0,5 C 1,4 C 6,4 km/h (2 Bft) 97,44 %
13.12.2015 04:20 1,5 C 93 % 1020,1 hPa 0,0 l/m 3,1 km/h (1 Bft) S 178 0 min 0,000 mm 0,0 UV-I 0 W/m 0,5 C 1,5 C 4,8 km/h (1 Bft) 95,87 %
13.12.2015 04:25 1,4 C 93 % 1020,1 hPa 0,0 l/m 2,1 km/h (1 Bft) S 178 0 min 0,000 mm 0,0 UV-I 0 W/m 0,4 C 1,4 C 4,8 km/h (1 Bft) 98,17 %
13.12.2015 04:30 1,2 C 94 % 1020,2 hPa 0,0 l/m 2,6 km/h (1 Bft) S 178 0 min 0,000 mm 0,0 UV-I 0 W/m 0,3 C 1,2 C 4,8 km/h (1 Bft) 95,73 %
13.12.2015 04:35 1,2 C 94 % 1020,1 hPa 0,0 l/m 2,8 km/h (1 Bft) S 178 0 min 0,000 mm 0,0 UV-I 0 W/m 0,3 C 1,2 C 4,8 km/h (1 Bft) 100,00 %
13.12.2015 04:40 1,1 C 94 % 1020,1 hPa 0,0 l/m 2,4 km/h (1 Bft) S 178 0 min 0,000 mm 0,0 UV-I 0 W/m 0,2 C 1,1 C 3,2 km/h (1 Bft) 97,44 %
13.12.2015 04:45 1,0 C 94 % 1020,1 hPa 0,0 l/m 2,7 km/h (1 Bft) S 178 0 min 0,000 mm 0,0 UV-I 0 W/m 0,1 C 1,0 C 4,8 km/h (1 Bft) 99,15 %
13.12.2015 04:50 1,2 C 94 % 1020,1 hPa 0,0 l/m 2,4 km/h (1 Bft) S 178 0 min 0,000 mm 0,0 UV-I 0 W/m 0,3 C 1,2 C 4,8 km/h (1 Bft) 100,00 %
13.12.2015 04:55 1,2 C 94 % 1020,1 hPa 0,0 l/m 2,5 km/h (1 Bft) S 178 0 min 0,000 mm 0,0 UV-I 0 W/m 0,3 C 1,2 C 4,8 km/h (1 Bft) 96,30 %
13.12.2015 05:00 1,0 C 94 % 1020,1 hPa 0,0 l/m 2,4 km/h (1 Bft) S 177 0 min 0,000 mm 0,0 UV-I 0 W/m 0,1 C 1,0 C 4,8 km/h (1 Bft) 97,52 %
13.12.2015 05:05 0,9 C 94 % 1020,1 hPa 0,0 l/m 1,2 km/h (1 Bft) S 177 0 min 0,000 mm 0,0 UV-I 0 W/m 0,0 C 0,9 C 3,2 km/h (1 Bft) 99,17 %
13.12.2015 05:10 0,9 C 94 % 1020,1 hPa 0,0 l/m 2,7 km/h (1 Bft) S 173 0 min 0,000 mm 0,0 UV-I 0 W/m 0,0 C 0,9 C 4,8 km/h (1 Bft) 99,15 %
13.12.2015 05:15 1,1 C 94 % 1020,2 hPa 0,0 l/m 3,5 km/h (1 Bft) S 173 0 min 0,000 mm 0,0 UV-I 0 W/m 0,2 C 1,1 C 4,8 km/h (1 Bft) 99,15 %
13.12.2015 05:20 1,1 C 94 % 1020,2 hPa 0,0 l/m 4,1 km/h (1 Bft) S 188 0 min 0,000 mm 0,0 UV-I 0 W/m 0,2 C 1,1 C 8,0 km/h (2 Bft) 100,00 %
13.12.2015 05:25 1,1 C 94 % 1020,1 hPa 0,0 l/m 4,7 km/h (1 Bft) S 188 0 min 0,000 mm 0,0 UV-I 0 W/m 0,2 C 1,1 C 6,4 km/h (2 Bft) 99,08 %
13.12.2015 05:30 1,0 C 93 % 1020,1 hPa 0,0 l/m 3,2 km/h (1 Bft) S 187 0 min 0,000 mm 0,0 UV-I 0 W/m -0,0 C 1,0 C 4,8 km/h (1 Bft) 97,46 %
13.12.2015 05:35 0,8 C 94 % 1020,1 hPa 0,0 l/m 3,5 km/h (1 Bft) S 187 0 min 0,000 mm 0,0 UV-I 0 W/m -0,1 C 0,8 C 4,8 km/h (1 Bft) 100,00 %
13.12.2015 05:40 0,9 C 95 % 1020,1 hPa 0,0 l/m 2,9 km/h (1 Bft) S 187 0 min 0,000 mm 0,0 UV-I 0 W/m 0,2 C 0,9 C 4,8 km/h (1 Bft) 98,35 %
13.12.2015 05:45 0,9 C 94 % 1020,1 hPa 0,0 l/m 3,2 km/h (1 Bft) S 178 0 min 0,000 mm 0,0 UV-I 0 W/m 0,0 C 0,9 C 6,4 km/h (2 Bft) 97,50 %
13.12.2015 05:50 0,8 C 94 % 1020,0 hPa 0,0 l/m 4,3 km/h (1 Bft) S 178 0 min 0,000 mm 0,0 UV-I 0 W/m -0,1 C 0,8 C 6,4 km/h (2 Bft) 98,31 %
13.12.2015 05:55 0,8 C 94 % 1020,1 hPa 0,0 l/m 4,0 km/h (1 Bft) S 178 0 min 0,000 mm 0,0 UV-I 0 W/m -0,1 C 0,8 C 6,4 km/h (2 Bft) 99,15 %
13.12.2015 06:00 0,7 C 94 % 1020,1 hPa 0,0 l/m 3,5 km/h (1 Bft) S 178 0 min 0,000 mm 0,0 UV-I 0 W/m -0,2 C 0,7 C 4,8 km/h (1 Bft) 99,07 %
13.12.2015 06:05 0,7 C 94 % 1020,2 hPa 0,0 l/m 2,0 km/h (1 Bft) S 178 0 min 0,000 mm 0,0 UV-I 0 W/m -0,2 C 0,7 C 4,8 km/h (1 Bft) 97,46 %
13.12.2015 06:10 0,3 C 94 % 1020,2 hPa 0,0 l/m 2,3 km/h (1 Bft) S 178 0 min 0,000 mm 0,0 UV-I 0 W/m -0,5 C 0,3 C 4,8 km/h (1 Bft) 94,92 %
13.12.2015 06:15 0,2 C 95 % 1020,1 hPa 0,0 l/m 3,7 km/h (1 Bft) S 178 0 min 0,000 mm 0,0 UV-I 0 W/m -0,5 C 0,2 C 4,8 km/h (1 Bft) 95,00 %
13.12.2015 06:20 0,1 C 95 % 1020,1 hPa 0,0 l/m 3,6 km/h (1 Bft) S-SW 211 0 min 0,000 mm 0,0 UV-I 0 W/m -0,6 C 0,1 C 4,8 km/h (1 Bft) 97,46 %
13.12.2015 06:25 0,2 C 96 % 1020,1 hPa 0,0 l/m 4,2 km/h (1 Bft) S-SW 208 0 min 0,000 mm 0,0 UV-I 0 W/m -0,4 C 0,2 C 6,4 km/h (2 Bft) 95,76 %
13.12.2015 06:30 0,2 C 96 % 1020,1 hPa 0,0 l/m 4,1 km/h (1 Bft) S-SW 210 0 min 0,000 mm 0,0 UV-I 0 W/m -0,4 C 0,2 C 6,4 km/h (2 Bft) 97,50 %
13.12.2015 06:35 0,3 C 95 % 1020,3 hPa 0,0 l/m 5,0 km/h (1 Bft) SW 221 0 min 0,000 mm 0,0 UV-I 0 W/m -0,4 C 0,3 C 8,0 km/h (2 Bft) 97,46 %
13.12.2015 06:40 0,4 C 95 % 1020,4 hPa 0,0 l/m 4,6 km/h (1 Bft) SW 217 0 min 0,000 mm 0,0 UV-I 0 W/m -0,3 C 0,4 C 6,4 km/h (2 Bft) 95,37 %
13.12.2015 06:45 0,5 C 95 % 1020,5 hPa 0,0 l/m 3,7 km/h (1 Bft) W-SW 257 0 min 0,000 mm 0,0 UV-I 0 W/m -0,2 C 0,5 C 8,0 km/h (2 Bft) 98,32 %
13.12.2015 06:50 0,3 C 95 % 1020,5 hPa 0,0 l/m 1,8 km/h (1 Bft) W-SW 257 0 min 0,000 mm 0,0 UV-I 0 W/m -0,4 C 0,3 C 3,2 km/h (1 Bft) 98,31 %
13.12.2015 06:55 0,4 C 95 % 1020,5 hPa 0,0 l/m 4,1 km/h (1 Bft) W-SW 242 0 min 0,000 mm 0,0 UV-I 0 W/m -0,3 C 0,4 C 6,4 km/h (2 Bft) 97,52 %
13.12.2015 07:00 0,5 C 95 % 1020,5 hPa 0,0 l/m 4,2 km/h (1 Bft) S-SW 206 0 min 0,000 mm 0,0 UV-I 0 W/m -0,2 C 0,5 C 6,4 km/h (2 Bft) 99,08 %
13.12.2015 07:05 0,4 C 94 % 1020,4 hPa 0,0 l/m 3,7 km/h (1 Bft) S-SW 207 0 min 0,000 mm 0,0 UV-I 0 W/m -0,5 C 0,4 C 6,4 km/h (2 Bft) 98,35 %
13.12.2015 07:10 0,4 C 94 % 1020,4 hPa 0,0 l/m 4,2 km/h (1 Bft) S-SW 192 0 min 0,000 mm 0,0 UV-I 0 W/m -0,5 C 0,4 C 8,0 km/h (2 Bft) 100,00 %
13.12.2015 07:15 0,3 C 94 % 1020,5 hPa 0,0 l/m 3,8 km/h (1 Bft) S-SW 198 0 min 0,000 mm 0,0 UV-I 0 W/m -0,5 C 0,3 C 6,4 km/h (2 Bft) 99,15 %
13.12.2015 07:20 0,3 C 95 % 1020,6 hPa 0,0 l/m 2,6 km/h (1 Bft) SW 221 0 min 0,000 mm 0,0 UV-I 0 W/m -0,4 C 0,3 C 4,8 km/h (1 Bft) 100,00 %
13.12.2015 07:25 0,2 C 94 % 1020,6 hPa 0,0 l/m 2,7 km/h (1 Bft) SW 221 0 min 0,000 mm 0,0 UV-I 0 W/m -0,6 C 0,2 C 4,8 km/h (1 Bft) 100,00 %
13.12.2015 07:30 0,0 C 94 % 1020,6 hPa 0,0 l/m 4,0 km/h (1 Bft) SW 215 0 min 0,000 mm 0,0 UV-I 0 W/m -0,8 C 0,0 C 4,8 km/h (1 Bft) 99,15 %
13.12.2015 07:35 -0,1 C 95 % 1020,6 hPa 0,0 l/m 4,7 km/h (1 Bft) SW 225 0 min 0,000 mm 0,0 UV-I 2 W/m -0,8 C -0,1 C 6,4 km/h (2 Bft) 100,00 %
13.12.2015 07:40 -0,1 C 95 % 1020,6 hPa 0,0 l/m 5,0 km/h (1 Bft) S-SW 213 0 min 0,000 mm 0,0 UV-I 6 W/m -0,8 C -0,1 C 8,0 km/h (2 Bft) 98,31 %
13.12.2015 07:45 -0,1 C 95 % 1020,7 hPa 0,0 l/m 5,1 km/h (1 Bft) S 191 0 min 0,000 mm 0,0 UV-I 7 W/m -0,8 C -0,1 C 8,0 km/h (2 Bft) 100,00 %
13.12.2015 07:50 0,0 C 95 % 1020,8 hPa 0,0 l/m 4,4 km/h (1 Bft) S-SW 197 0 min 0,000 mm 0,0 UV-I 8 W/m -0,7 C 0,0 C 9,7 km/h (2 Bft) 98,29 %
13.12.2015 07:55 0,1 C 95 % 1020,9 hPa 0,0 l/m 4,6 km/h (1 Bft) SW 215 0 min 0,000 mm 0,0 UV-I 13 W/m -0,6 C 0,1 C 9,7 km/h (2 Bft) 100,00 %
13.12.2015 08:00 0,1 C 95 % 1021,0 hPa 0,0 l/m 3,7 km/h (1 Bft) SW 229 5 min 0,000 mm 0,0 UV-I 19 W/m -0,6 C 0,1 C 6,4 km/h (2 Bft) 99,17 %
13.12.2015 08:05 0,2 C 95 % 1021,1 hPa 0,0 l/m 2,9 km/h (1 Bft) SW 229 5 min 0,000 mm 0,0 UV-I 22 W/m -0,5 C 0,2 C 6,4 km/h (2 Bft) 100,00 %
13.12.2015 08:10 0,2 C 95 % 1021,1 hPa 0,0 l/m 1,9 km/h (1 Bft) SW 228 0 min 0,000 mm 0,0 UV-I 24 W/m -0,5 C 0,2 C 3,2 km/h (1 Bft) 99,15 %
13.12.2015 08:15 0,2 C 95 % 1021,1 hPa 0,0 l/m 2,4 km/h (1 Bft) S-SO 167 0 min 0,000 mm 0,0 UV-I 29 W/m -0,5 C 0,2 C 8,0 km/h (2 Bft) 99,10 %
13.12.2015 08:20 0,3 C 95 % 1021,1 hPa 0,0 l/m 5,1 km/h (1 Bft) S-SW 196 0 min 0,000 mm 0,0 UV-I 36 W/m -0,4 C 0,3 C 9,7 km/h (2 Bft) 95,76 %
13.12.2015 08:25 0,3 C 95 % 1021,2 hPa 0,0 l/m 4,4 km/h (1 Bft) S 188 0 min 0,000 mm 0,0 UV-I 40 W/m -0,4 C 0,3 C 6,4 km/h (2 Bft) 97,50 %
13.12.2015 08:30 0,3 C 95 % 1021,2 hPa 0,0 l/m 2,4 km/h (1 Bft) S-SW 194 0 min 0,000 mm 0,0 UV-I 45 W/m -0,4 C 0,3 C 4,8 km/h (1 Bft) 97,46 %
13.12.2015 08:35 0,4 C 95 % 1021,3 hPa 0,0 l/m 0,2 km/h (0 Bft) S-SW 194 0 min 0,000 mm 0,0 UV-I 48 W/m -0,3 C 0,4 C 1,6 km/h (1 Bft) 96,33 %
13.12.2015 08:40 0,4 C 95 % 1021,2 hPa 0,0 l/m 0,4 km/h (0 Bft) S-SW 194 0 min 0,000 mm 0,0 UV-I 52 W/m -0,3 C 0,4 C 1,6 km/h (1 Bft) 96,58 %
13.12.2015 08:45 0,5 C 94 % 1021,2 hPa 0,0 l/m 2,1 km/h (1 Bft) S 175 0 min 0,000 mm 0,0 UV-I 52 W/m -0,4 C 0,5 C 4,8 km/h (1 Bft) 97,52 %
13.12.2015 08:50 0,6 C 94 % 1021,2 hPa 0,0 l/m 3,8 km/h (1 Bft) S-SW 204 0 min 0,000 mm 0,0 UV-I 51 W/m -0,3 C 0,6 C 6,4 km/h (2 Bft) 97,46 %
13.12.2015 08:55 0,6 C 95 % 1021,1 hPa 0,0 l/m 5,2 km/h (1 Bft) S-SW 196 0 min 0,000 mm 0,0 UV-I 53 W/m -0,1 C 0,6 C 8,0 km/h (2 Bft) 95,83 %
13.12.2015 09:00 0,7 C 95 % 1021,1 hPa 0,0 l/m 5,2 km/h (1 Bft) S-SW 210 0 min 0,025 mm 0,0 UV-I 57 W/m -0,0 C 0,7 C 8,0 km/h (2 Bft) 98,21 %
13.12.2015 09:05 0,7 C 94 % 1021,1 hPa 0,0 l/m 4,9 km/h (1 Bft) S 182 0 min 0,000 mm 0,0 UV-I 59 W/m -0,2 C 0,7 C 8,0 km/h (2 Bft) 96,69 %
13.12.2015 09:10 0,8 C 94 % 1021,2 hPa 0,0 l/m 4,3 km/h (1 Bft) SW 229 0 min 0,000 mm 0,0 UV-I 60 W/m -0,1 C 0,8 C 8,0 km/h (2 Bft) 100,00 %
13.12.2015 09:15 0,8 C 94 % 1021,2 hPa 0,0 l/m 3,6 km/h (1 Bft) S 189 0 min 0,000 mm 0,0 UV-I 64 W/m -0,1 C 0,8 C 6,4 km/h (2 Bft) 99,19 %
13.12.2015 09:20 0,9 C 94 % 1021,2 hPa 0,0 l/m 5,0 km/h (1 Bft) S 190 0 min 0,000 mm 0,0 UV-I 69 W/m 0,0 C 0,9 C 8,0 km/h (2 Bft) 100,00 %
13.12.2015 09:25 1,1 C 94 % 1021,2 hPa 0,0 l/m 4,6 km/h (1 Bft) S-SW 200 0 min 0,000 mm 0,0 UV-I 72 W/m 0,2 C 1,1 C 8,0 km/h (2 Bft) 99,15 %
13.12.2015 09:30 1,1 C 93 % 1021,2 hPa 0,0 l/m 3,9 km/h (1 Bft) S 179 0 min 0,000 mm 0,0 UV-I 74 W/m 0,1 C 1,1 C 6,4 km/h (2 Bft) 100,00 %
13.12.2015 09:35 1,3 C 93 % 1021,2 hPa 0,0 l/m 0,4 km/h (0 Bft) S 179 0 min 0,000 mm 0,0 UV-I 79 W/m 0,3 C 1,3 C 3,2 km/h (1 Bft) 99,15 %
13.12.2015 09:40 1,3 C 93 % 1021,2 hPa 0,0 l/m 0,4 km/h (0 Bft) S 179 0 min 0,000 mm 0,0 UV-I 82 W/m 0,3 C 1,3 C 1,6 km/h (1 Bft) 99,15 %
13.12.2015 09:45 1,4 C 93 % 1021,2 hPa 0,0 l/m 0,4 km/h (0 Bft) S 179 0 min 0,000 mm 0,0 UV-I 85 W/m 0,4 C 1,4 C 3,2 km/h (1 Bft) 98,11 %
13.12.2015 09:50 1,4 C 93 % 1021,2 hPa 0,0 l/m 0,2 km/h (0 Bft) S 179 0 min 0,000 mm 0,0 UV-I 86 W/m 0,4 C 1,4 C 1,6 km/h (1 Bft) 99,19 %
13.12.2015 09:55 1,3 C 93 % 1021,2 hPa 0,0 l/m 0,0 km/h (0 Bft) S 179 0 min 0,000 mm 0,0 UV-I 82 W/m 0,3 C 1,3 C 1,6 km/h (1 Bft) 100,00 %
13.12.2015 10:00 1,3 C 93 % 1021,4 hPa 0,0 l/m 0,4 km/h (0 Bft) S 179 0 min 0,026 mm 0,0 UV-I 82 W/m 0,3 C 1,3 C 3,2 km/h (1 Bft) 98,15 %
13.12.2015 10:05 1,3 C 94 % 1021,6 hPa 0,0 l/m 0,3 km/h (0 Bft) S 184 0 min 0,000 mm 0,0 UV-I 88 W/m 0,4 C 1,3 C 1,6 km/h (1 Bft) 99,15 %
13.12.2015 10:10 1,3 C 94 % 1021,5 hPa 0,0 l/m 0,9 km/h (0 Bft) N-NO 19 0 min 0,000 mm 0,0 UV-I 98 W/m 0,4 C 1,3 C 3,2 km/h (1 Bft) 100,00 %
13.12.2015 10:15 1,3 C 94 % 1021,6 hPa 0,0 l/m 1,1 km/h (1 Bft) N-NO 26 0 min 0,000 mm 0,0 UV-I 114 W/m 0,4 C 1,3 C 3,2 km/h (1 Bft) 98,29 %
13.12.2015 10:20 1,6 C 93 % 1021,6 hPa 0,0 l/m 0,5 km/h (0 Bft) N-NO 26 0 min 0,000 mm 0,0 UV-I 131 W/m 0,6 C 1,6 C 3,2 km/h (1 Bft) 97,46 %
13.12.2015 10:25 1,8 C 92 % 1021,6 hPa 0,0 l/m 0,9 km/h (0 Bft) NW 318 0 min 0,000 mm 0,0 UV-I 147 W/m 0,6 C 1,8 C 3,2 km/h (1 Bft) 97,39 %
13.12.2015 10:30 1,8 C 92 % 1021,6 hPa 0,0 l/m 1,0 km/h (0 Bft) NW 318 5 min 0,000 mm 0,0 UV-I 164 W/m 0,6 C 1,8 C 3,2 km/h (1 Bft) 97,44 %
13.12.2015 10:35 2,1 C 92 % 1021,7 hPa 0,0 l/m 0,5 km/h (0 Bft) NW 317 5 min 0,000 mm 0,0 UV-I 221 W/m 0,9 C 2,1 C 3,2 km/h (1 Bft) 96,61 %
13.12.2015 10:40 2,3 C 92 % 1021,7 hPa 0,0 l/m 1,2 km/h (1 Bft) NW 309 5 min 0,000 mm 0,0 UV-I 197 W/m 1,1 C 2,3 C 3,2 km/h (1 Bft) 95,73 %
13.12.2015 10:45 2,4 C 92 % 1021,7 hPa 0,0 l/m 0,7 km/h (0 Bft) NW 309 5 min 0,000 mm 0,0 UV-I 183 W/m 1,2 C 2,4 C 1,6 km/h (1 Bft) 96,61 %
13.12.2015 10:50 2,7 C 91 % 1021,6 hPa 0,0 l/m 1,5 km/h (1 Bft) W-NW 286 5 min 0,000 mm 0,0 UV-I 185 W/m 1,4 C 2,7 C 4,8 km/h (1 Bft) 97,46 %
13.12.2015 10:55 2,9 C 89 % 1021,7 hPa 0,0 l/m 4,6 km/h (1 Bft) W-SW 252 5 min 0,000 mm 0,1 UV-I 172 W/m 1,3 C 2,9 C 9,7 km/h (2 Bft) 99,15 %
13.12.2015 11:00 3,2 C 90 % 1021,8 hPa 0,0 l/m 2,5 km/h (1 Bft) W 274 5 min 0,051 mm 0,5 UV-I 176 W/m 1,7 C 3,2 C 11,3 km/h (2 Bft) 100,00 %
13.12.2015 11:05 3,3 C 88 % 1021,8 hPa 0,0 l/m 2,4 km/h (1 Bft) W 277 0 min 0,000 mm 0,5 UV-I 171 W/m 1,5 C 3,3 C 4,8 km/h (1 Bft) 98,17 %
13.12.2015 11:10 3,3 C 88 % 1021,8 hPa 0,0 l/m 0,9 km/h (0 Bft) W 277 0 min 0,000 mm 0,5 UV-I 161 W/m 1,5 C 3,3 C 3,2 km/h (1 Bft) 99,15 %
13.12.2015 11:15 3,2 C 87 % 1021,8 hPa 0,0 l/m 0,0 km/h (0 Bft) W 277 0 min 0,000 mm 0,5 UV-I 160 W/m 1,2 C 3,2 C 1,6 km/h (1 Bft) 100,00 %
13.12.2015 11:20 3,3 C 87 % 1021,7 hPa 0,0 l/m 1,1 km/h (1 Bft) W 277 0 min 0,000 mm 0,5 UV-I 160 W/m 1,3 C 3,3 C 3,2 km/h (1 Bft) 99,15 %
13.12.2015 11:25 3,4 C 87 % 1021,7 hPa 0,0 l/m 0,1 km/h (0 Bft) W 277 0 min 0,000 mm 0,5 UV-I 164 W/m 1,4 C 3,4 C 1,6 km/h (1 Bft) 99,15 %
13.12.2015 11:30 3,6 C 88 % 1021,7 hPa 0,0 l/m 0,6 km/h (0 Bft) W 277 0 min 0,000 mm 0,5 UV-I 172 W/m 1,8 C 3,6 C 3,2 km/h (1 Bft) 99,15 %
13.12.2015 11:35 3,7 C 86 % 1021,7 hPa 0,0 l/m 0,4 km/h (0 Bft) W 277 0 min 0,000 mm 0,5 UV-I 169 W/m 1,6 C 3,7 C 1,6 km/h (1 Bft) 100,00 %
13.12.2015 11:40 3,7 C 84 % 1021,8 hPa 0,0 l/m 1,2 km/h (1 Bft) W-NW 301 0 min 0,000 mm 0,5 UV-I 167 W/m 1,3 C 3,7 C 3,2 km/h (1 Bft) 100,00 %
13.12.2015 11:45 3,8 C 86 % 1021,8 hPa 0,0 l/m 0,9 km/h (0 Bft) NW 304 0 min 0,000 mm 0,5 UV-I 162 W/m 1,7 C 3,8 C 3,2 km/h (1 Bft) 98,33 %
13.12.2015 11:50 3,8 C 84 % 1021,7 hPa 0,0 l/m 1,5 km/h (1 Bft) W-NW 286 0 min 0,000 mm 0,5 UV-I 164 W/m 1,4 C 3,8 C 4,8 km/h (1 Bft) 99,06 %
13.12.2015 11:55 3,9 C 84 % 1021,7 hPa 0,0 l/m 0,7 km/h (0 Bft) W-NW 286 0 min 0,000 mm 0,5 UV-I 165 W/m 1,4 C 3,9 C 3,2 km/h (1 Bft) 97,46 %
13.12.2015 12:00 4,0 C 84 % 1021,8 hPa 0,0 l/m 0,9 km/h (0 Bft) W-NW 286 0 min 0,000 mm 0,5 UV-I 163 W/m 1,5 C 4,0 C 3,2 km/h (1 Bft) 98,33 %
13.12.2015 12:05 4,2 C 85 % 1021,8 hPa 0,0 l/m 1,7 km/h (1 Bft) W-NW 290 0 min 0,076 mm 0,5 UV-I 168 W/m 1,9 C 4,2 C 4,8 km/h (1 Bft) 96,77 %
13.12.2015 12:10 4,3 C 82 % 1021,8 hPa 0,0 l/m 2,4 km/h (1 Bft) NW 307 0 min 0,000 mm 0,5 UV-I 175 W/m 1,5 C 4,3 C 6,4 km/h (2 Bft) 98,31 %
13.12.2015 12:15 4,4 C 81 % 1021,8 hPa 0,0 l/m 4,7 km/h (1 Bft) W 280 5 min 0,000 mm 0,5 UV-I 187 W/m 1,4 C 4,4 C 11,3 km/h (2 Bft) 96,19 %
13.12.2015 12:20 4,6 C 80 % 1021,7 hPa 0,0 l/m 4,3 km/h (1 Bft) W-NW 291 5 min 0,000 mm 0,5 UV-I 191 W/m 1,5 C 4,6 C 11,3 km/h (2 Bft) 95,87 %
13.12.2015 12:25 4,8 C 81 % 1021,8 hPa 0,0 l/m 4,3 km/h (1 Bft) W 273 5 min 0,000 mm 0,5 UV-I 205 W/m 1,8 C 4,8 C 11,3 km/h (2 Bft) 97,52 %
13.12.2015 12:30 5,1 C 80 % 1021,7 hPa 0,0 l/m 6,0 km/h (2 Bft) W-NW 303 5 min 0,000 mm 0,5 UV-I 183 W/m 1,9 C 5,1 C 14,5 km/h (3 Bft) 96,58 %
13.12.2015 12:35 5,1 C 79 % 1021,7 hPa 0,0 l/m 7,0 km/h (2 Bft) W-SW 258 5 min 0,000 mm 0,5 UV-I 178 W/m 1,8 C 4,6 C 16,1 km/h (3 Bft) 96,43 %
13.12.2015 12:40 5,2 C 79 % 1021,7 hPa 0,0 l/m 5,2 km/h (1 Bft) W 270 5 min 0,000 mm 0,5 UV-I 176 W/m 1,9 C 5,2 C 12,9 km/h (3 Bft) 95,83 %
13.12.2015 12:45 5,4 C 79 % 1021,7 hPa 0,0 l/m 5,9 km/h (2 Bft) W-SW 240 5 min 0,000 mm 0,5 UV-I 174 W/m 2,1 C 5,4 C 14,5 km/h (3 Bft) 97,46 %
13.12.2015 12:50 5,6 C 78 % 1021,7 hPa 0,0 l/m 5,1 km/h (1 Bft) W 265 5 min 0,000 mm 0,5 UV-I 176 W/m 2,1 C 5,6 C 11,3 km/h (2 Bft) 98,35 %
13.12.2015 12:55 5,7 C 78 % 1021,6 hPa 0,0 l/m 6,3 km/h (2 Bft) W 271 5 min 0,000 mm 0,5 UV-I 174 W/m 2,2 C 5,7 C 12,9 km/h (3 Bft) 96,58 %
13.12.2015 13:00 5,8 C 77 % 1021,5 hPa 0,0 l/m 7,8 km/h (2 Bft) W 281 5 min 0,076 mm 0,5 UV-I 183 W/m 2,1 C 4,6 C 14,5 km/h (3 Bft) 99,15 %
13.12.2015 13:05 6,0 C 77 % 1021,6 hPa 0,0 l/m 10,9 km/h (2 Bft) W 265 5 min 0,000 mm 0,5 UV-I 190 W/m 2,3 C 2,6 C 17,7 km/h (3 Bft) 98,17 %
13.12.2015 13:10 6,1 C 77 % 1021,5 hPa 0,0 l/m 10,2 km/h (2 Bft) W 265 5 min 0,000 mm 0,5 UV-I 178 W/m 2,4 C 3,2 C 19,3 km/h (3 Bft) 100,00 %
13.12.2015 13:15 6,2 C 77 % 1021,5 hPa 0,0 l/m 9,3 km/h (2 Bft) W 264 5 min 0,000 mm 0,5 UV-I 170 W/m 2,5 C 3,9 C 16,1 km/h (3 Bft) 98,31 %
13.12.2015 13:20 6,2 C 77 % 1021,6 hPa 0,0 l/m 9,2 km/h (2 Bft) W-SW 248 5 min 0,000 mm 0,5 UV-I 172 W/m 2,5 C 4,0 C 19,3 km/h (3 Bft) 100,00 %
13.12.2015 13:25 6,3 C 79 % 1021,6 hPa 0,0 l/m 6,7 km/h (2 Bft) W 266 5 min 0,000 mm 0,0 UV-I 170 W/m 2,9 C 6,1 C 17,7 km/h (3 Bft) 98,29 %
13.12.2015 13:30 6,2 C 78 % 1021,6 hPa 0,0 l/m 6,7 km/h (2 Bft) W-SW 254 5 min 0,000 mm 0,0 UV-I 169 W/m 2,7 C 6,0 C 17,7 km/h (3 Bft) 98,31 %
13.12.2015 13:35 6,0 C 78 % 1021,5 hPa 0,0 l/m 8,5 km/h (2 Bft) W 261 5 min 0,000 mm 0,0 UV-I 164 W/m 2,5 C 4,3 C 19,3 km/h (3 Bft) 99,17 %
13.12.2015 13:40 5,9 C 79 % 1021,6 hPa 0,0 l/m 7,6 km/h (2 Bft) W-SW 258 5 min 0,000 mm 0,0 UV-I 159 W/m 2,5 C 4,9 C 16,1 km/h (3 Bft) 100,00 %
13.12.2015 13:45 5,8 C 80 % 1021,6 hPa 0,0 l/m 6,4 km/h (2 Bft) W-SW 246 0 min 0,000 mm 0,0 UV-I 140 W/m 2,6 C 5,8 C 12,9 km/h (3 Bft) 99,15 %
13.12.2015 13:50 5,8 C 79 % 1021,5 hPa 0,0 l/m 10,0 km/h (2 Bft) W-SW 243 0 min 0,000 mm 0,0 UV-I 135 W/m 2,4 C 3,0 C 20,9 km/h (4 Bft) 99,07 %
13.12.2015 13:55 5,8 C 80 % 1021,5 hPa 0,0 l/m 9,0 km/h (2 Bft) W 269 5 min 0,000 mm 0,0 UV-I 139 W/m 2,6 C 3,7 C 19,3 km/h (3 Bft) 98,35 %
13.12.2015 14:00 5,8 C 79 % 1021,5 hPa 0,0 l/m 10,2 km/h (2 Bft) W-NW 286 5 min 0,076 mm 0,0 UV-I 133 W/m 2,4 C 2,8 C 22,5 km/h (4 Bft) 95,73 %
13.12.2015 14:05 5,8 C 81 % 1021,4 hPa 0,0 l/m 8,5 km/h (2 Bft) SW 236 0 min 0,000 mm 0,0 UV-I 128 W/m 2,8 C 4,0 C 19,3 km/h (3 Bft) 95,04 %
13.12.2015 14:10 5,8 C 82 % 1021,5 hPa 0,0 l/m 8,8 km/h (2 Bft) W 261 0 min 0,000 mm 0,0 UV-I 120 W/m 3,0 C 3,8 C 24,1 km/h (4 Bft) 97,25 %
13.12.2015 14:15 5,8 C 83 % 1021,5 hPa 0,0 l/m 8,9 km/h (2 Bft) W-NW 284 0 min 0,000 mm 0,0 UV-I 110 W/m 3,1 C 3,7 C 22,5 km/h (4 Bft) 98,32 %
13.12.2015 14:20 5,7 C 84 % 1021,6 hPa 0,0 l/m 6,5 km/h (2 Bft) N 9 0 min 0,000 mm 0,0 UV-I 113 W/m 3,2 C 5,6 C 17,7 km/h (3 Bft) 96,69 %
13.12.2015 14:25 5,7 C 84 % 1021,6 hPa 0,0 l/m 8,2 km/h (2 Bft) W 259 0 min 0,000 mm 0,0 UV-I 109 W/m 3,2 C 4,2 C 17,7 km/h (3 Bft) 94,92 %
13.12.2015 14:30 5,7 C 84 % 1021,6 hPa 0,0 l/m 5,3 km/h (1 Bft) W 276 0 min 0,000 mm 0,0 UV-I 96 W/m 3,2 C 5,7 C 20,9 km/h (4 Bft) 94,87 %
13.12.2015 14:35 5,7 C 83 % 1021,6 hPa 0,0 l/m 7,4 km/h (2 Bft) W 277 0 min 0,000 mm 0,0 UV-I 90 W/m 3,0 C 4,8 C 14,5 km/h (3 Bft) 98,35 %
13.12.2015 14:40 5,7 C 82 % 1021,6 hPa 0,0 l/m 8,7 km/h (2 Bft) W-SW 250 0 min 0,000 mm 0,0 UV-I 90 W/m 2,9 C 3,8 C 16,1 km/h (3 Bft) 99,06 %
13.12.2015 14:45 5,7 C 82 % 1021,7 hPa 0,0 l/m 9,5 km/h (2 Bft) W-NW 296 0 min 0,000 mm 0,0 UV-I 89 W/m 2,9 C 3,2 C 17,7 km/h (3 Bft) 99,17 %
13.12.2015 14:50 5,8 C 81 % 1021,7 hPa 0,0 l/m 10,0 km/h (2 Bft) N-NW 341 0 min 0,000 mm 0,0 UV-I 86 W/m 2,8 C 3,0 C 22,5 km/h (4 Bft) 98,35 %
13.12.2015 14:55 5,8 C 80 % 1021,6 hPa 0,0 l/m 12,5 km/h (3 Bft) W-SW 253 0 min 0,000 mm 0,0 UV-I 74 W/m 2,6 C 1,4 C 20,9 km/h (4 Bft) 100,00 %
13.12.2015 15:00 5,9 C 81 % 1021,7 hPa 0,0 l/m 12,3 km/h (3 Bft) W-SW 252 0 min 0,051 mm 0,0 UV-I 51 W/m 2,9 C 1,6 C 17,7 km/h (3 Bft) 99,15 %
13.12.2015 15:05 6,0 C 80 % 1021,7 hPa 0,0 l/m 10,7 km/h (2 Bft) W-SW 254 0 min 0,000 mm 0,0 UV-I 37 W/m 2,8 C 2,7 C 22,5 km/h (4 Bft) 99,11 %
13.12.2015 15:10 6,1 C 81 % 1021,7 hPa 0,0 l/m 9,3 km/h (2 Bft) W-NW 284 0 min 0,000 mm 0,0 UV-I 39 W/m 3,1 C 3,8 C 14,5 km/h (3 Bft) 99,15 %
13.12.2015 15:15 6,2 C 81 % 1021,7 hPa 0,0 l/m 7,5 km/h (2 Bft) W 263 0 min 0,000 mm 0,0 UV-I 40 W/m 3,2 C 5,3 C 16,1 km/h (3 Bft) 99,15 %
13.12.2015 15:20 6,3 C 80 % 1021,8 hPa 0,0 l/m 9,3 km/h (2 Bft) W-NW 294 0 min 0,000 mm 0,0 UV-I 31 W/m 3,1 C 4,0 C 22,5 km/h (4 Bft) 98,26 %
13.12.2015 15:25 6,3 C 80 % 1021,8 hPa 0,0 l/m 9,2 km/h (2 Bft) W 273 0 min 0,000 mm 0,0 UV-I 25 W/m 3,1 C 4,1 C 19,3 km/h (3 Bft) 100,00 %
13.12.2015 15:30 6,4 C 79 % 1021,9 hPa 0,0 l/m 9,5 km/h (2 Bft) W 271 0 min 0,000 mm 0,0 UV-I 21 W/m 3,0 C 4,0 C 19,3 km/h (3 Bft) 99,15 %
13.12.2015 15:35 6,5 C 79 % 1021,9 hPa 0,0 l/m 8,6 km/h (2 Bft) W-NW 292 0 min 0,000 mm 0,0 UV-I 20 W/m 3,1 C 4,7 C 16,1 km/h (3 Bft) 100,00 %
13.12.2015 15:40 6,6 C 79 % 1021,8 hPa 0,0 l/m 9,2 km/h (2 Bft) W 273 0 min 0,000 mm 0,0 UV-I 19 W/m 3,2 C 4,4 C 19,3 km/h (3 Bft) 99,11 %
13.12.2015 15:45 6,6 C 80 % 1021,9 hPa 0,0 l/m 5,1 km/h (1 Bft) W-NW 293 0 min 0,000 mm 0,0 UV-I 16 W/m 3,4 C 6,6 C 11,3 km/h (2 Bft) 99,15 %
13.12.2015 15:50 6,5 C 79 % 1022,0 hPa 0,0 l/m 5,4 km/h (1 Bft) W 260 0 min 0,000 mm 0,0 UV-I 17 W/m 3,1 C 6,5 C 14,5 km/h (3 Bft) 100,00 %
13.12.2015 15:55 6,5 C 80 % 1022,0 hPa 0,0 l/m 4,8 km/h (1 Bft) W 266 5 min 0,000 mm 0,0 UV-I 14 W/m 3,3 C 6,5 C 9,7 km/h (2 Bft) 97,46 %
13.12.2015 16:00 6,5 C 79 % 1022,1 hPa 0,0 l/m 6,1 km/h (2 Bft) W 267 0 min 0,025 mm 0,0 UV-I 10 W/m 3,1 C 6,5 C 11,3 km/h (2 Bft) 99,15 %
13.12.2015 16:05 6,5 C 79 % 1022,1 hPa 0,0 l/m 4,8 km/h (1 Bft) W-NW 284 0 min 0,000 mm 0,0 UV-I 6 W/m 3,1 C 6,5 C 8,0 km/h (2 Bft) 97,46 %
13.12.2015 16:10 6,4 C 80 % 1022,2 hPa 0,0 l/m 3,2 km/h (1 Bft) W 278 0 min 0,000 mm 0,0 UV-I 0 W/m 3,2 C 6,4 C 6,4 km/h (2 Bft) 97,25 %
13.12.2015 16:15 6,4 C 79 % 1022,2 hPa 0,0 l/m 4,2 km/h (1 Bft) W-SW 255 0 min 0,000 mm 0,0 UV-I 0 W/m 3,0 C 6,4 C 11,3 km/h (2 Bft) 97,44 %
13.12.2015 16:20 6,4 C 79 % 1022,2 hPa 0,0 l/m 5,5 km/h (1 Bft) W-SW 258 0 min 0,000 mm 0,0 UV-I 0 W/m 3,0 C 6,4 C 9,7 km/h (2 Bft) 96,61 %
13.12.2015 16:25 6,4 C 80 % 1022,2 hPa 0,0 l/m 3,9 km/h (1 Bft) W 261 0 min 0,000 mm 0,0 UV-I 0 W/m 3,2 C 6,4 C 6,4 km/h (2 Bft) 94,92 %
13.12.2015 16:30 6,4 C 79 % 1022,1 hPa 0,0 l/m 5,4 km/h (1 Bft) W-SW 254 0 min 0,000 mm 0,0 UV-I 0 W/m 3,0 C 6,4 C 11,3 km/h (2 Bft) 97,44 %
13.12.2015 16:35 6,4 C 80 % 1022,2 hPa 0,0 l/m 5,8 km/h (2 Bft) W-SW 243 0 min 0,000 mm 0,0 UV-I 0 W/m 3,2 C 6,4 C 11,3 km/h (2 Bft) 97,46 %
13.12.2015 16:40 6,4 C 80 % 1022,2 hPa 0,0 l/m 3,8 km/h (1 Bft) SW 227 0 min 0,000 mm 0,0 UV-I 0 W/m 3,2 C 6,4 C 8,0 km/h (2 Bft) 100,00 %
13.12.2015 16:45 6,4 C 80 % 1022,3 hPa 0,0 l/m 3,2 km/h (1 Bft) SW 236 0 min 0,000 mm 0,0 UV-I 0 W/m 3,2 C 6,4 C 6,4 km/h (2 Bft) 98,29 %
13.12.2015 16:50 6,5 C 79 % 1022,4 hPa 0,0 l/m 3,8 km/h (1 Bft) SW 216 0 min 0,000 mm 0,0 UV-I 0 W/m 3,1 C 6,5 C 6,4 km/h (2 Bft) 98,31 %
13.12.2015 16:55 6,6 C 79 % 1022,4 hPa 0,0 l/m 3,4 km/h (1 Bft) SW 234 0 min 0,000 mm 0,0 UV-I 0 W/m 3,2 C 6,6 C 6,4 km/h (2 Bft) 100,00 %
13.12.2015 17:00 6,6 C 79 % 1022,4 hPa 0,0 l/m 4,0 km/h (1 Bft) S-SW 200 0 min 0,000 mm 0,0 UV-I 0 W/m 3,2 C 6,6 C 6,4 km/h (2 Bft) 98,17 %
13.12.2015 17:05 6,6 C 79 % 1022,5 hPa 0,0 l/m 3,3 km/h (1 Bft) S-SW 202 0 min 0,000 mm 0,0 UV-I 0 W/m 3,2 C 6,6 C 6,4 km/h (2 Bft) 99,17 %
13.12.2015 17:10 6,6 C 79 % 1022,5 hPa 0,0 l/m 4,3 km/h (1 Bft) S-SW 205 0 min 0,000 mm 0,0 UV-I 0 W/m 3,2 C 6,6 C 6,4 km/h (2 Bft) 98,29 %
13.12.2015 17:15 6,6 C 80 % 1022,5 hPa 0,0 l/m 2,9 km/h (1 Bft) S-SW 205 0 min 0,000 mm 0,0 UV-I 0 W/m 3,4 C 6,6 C 4,8 km/h (1 Bft) 99,17 %
13.12.2015 17:20 6,5 C 80 % 1022,6 hPa 0,0 l/m 3,2 km/h (1 Bft) SW 214 0 min 0,000 mm 0,0 UV-I 0 W/m 3,3 C 6,5 C 4,8 km/h (1 Bft) 100,00 %
13.12.2015 17:25 6,4 C 80 % 1022,6 hPa 0,0 l/m 2,9 km/h (1 Bft) S-SW 213 0 min 0,000 mm 0,0 UV-I 0 W/m 3,2 C 6,4 C 4,8 km/h (1 Bft) 99,15 %
13.12.2015 17:30 6,5 C 80 % 1022,6 hPa 0,0 l/m 2,9 km/h (1 Bft) S-SW 211 0 min 0,000 mm 0,0 UV-I 0 W/m 3,3 C 6,5 C 6,4 km/h (2 Bft) 99,15 %
13.12.2015 17:35 6,4 C 81 % 1022,6 hPa 0,0 l/m 3,4 km/h (1 Bft) S 180 0 min 0,000 mm 0,0 UV-I 0 W/m 3,4 C 6,4 C 8,0 km/h (2 Bft) 98,29 %
13.12.2015 17:40 6,3 C 81 % 1022,6 hPa 0,0 l/m 3,7 km/h (1 Bft) S 189 0 min 0,000 mm 0,0 UV-I 0 W/m 3,3 C 6,3 C 4,8 km/h (1 Bft) 99,06 %
13.12.2015 17:45 6,3 C 81 % 1022,7 hPa 0,0 l/m 3,3 km/h (1 Bft) S 188 0 min 0,000 mm 0,0 UV-I 0 W/m 3,3 C 6,3 C 4,8 km/h (1 Bft) 99,15 %
13.12.2015 17:50 6,4 C 80 % 1022,7 hPa 0,0 l/m 3,5 km/h (1 Bft) S 188 0 min 0,000 mm 0,0 UV-I 0 W/m 3,2 C 6,4 C 4,8 km/h (1 Bft) 100,00 %
13.12.2015 17:55 6,4 C 81 % 1022,7 hPa 0,0 l/m 1,8 km/h (1 Bft) S 188 0 min 0,000 mm 0,0 UV-I 0 W/m 3,4 C 6,4 C 3,2 km/h (1 Bft) 99,15 %
13.12.2015 18:00 6,3 C 82 % 1022,8 hPa 0,0 l/m 0,1 km/h (0 Bft) S 188 0 min 0,000 mm 0,0 UV-I 0 W/m 3,5 C 6,3 C 1,6 km/h (1 Bft) 99,15 %
13.12.2015 18:05 6,2 C 82 % 1022,8 hPa 0,0 l/m 0,0 km/h (0 Bft) S 188 0 min 0,000 mm 0,0 UV-I 0 W/m 3,4 C 6,2 C 0,0 km/h (0 Bft) 98,29 %
13.12.2015 18:10 6,1 C 83 % 1022,8 hPa 0,0 l/m 0,8 km/h (0 Bft) S 188 0 min 0,000 mm 0,0 UV-I 0 W/m 3,4 C 6,1 C 1,6 km/h (1 Bft) 97,46 %
13.12.2015 18:15 5,9 C 85 % 1022,9 hPa 0,0 l/m 0,7 km/h (0 Bft) S 188 0 min 0,000 mm 0,0 UV-I 0 W/m 3,6 C 5,9 C 3,2 km/h (1 Bft) 95,83 %
13.12.2015 18:20 5,7 C 86 % 1023,0 hPa 0,0 l/m 5,2 km/h (1 Bft) NO 38 0 min 0,000 mm 0,0 UV-I 0 W/m 3,5 C 5,7 C 8,0 km/h (2 Bft) 96,61 %
13.12.2015 18:25 5,7 C 85 % 1023,1 hPa 0,0 l/m 6,7 km/h (2 Bft) N-NO 24 0 min 0,000 mm 0,0 UV-I 0 W/m 3,4 C 5,5 C 9,7 km/h (2 Bft) 97,37 %
13.12.2015 18:30 5,7 C 85 % 1023,1 hPa 0,0 l/m 5,3 km/h (1 Bft) N-NO 17 0 min 0,000 mm 0,0 UV-I 0 W/m 3,4 C 5,7 C 8,0 km/h (2 Bft) 96,58 %
13.12.2015 18:35 5,7 C 85 % 1023,2 hPa 0,0 l/m 3,3 km/h (1 Bft) N-NO 22 0 min 0,000 mm 0,0 UV-I 0 W/m 3,4 C 5,7 C 6,4 km/h (2 Bft) 96,69 %
13.12.2015 18:40 5,6 C 85 % 1023,2 hPa 0,0 l/m 4,1 km/h (1 Bft) N-NO 24 0 min 0,000 mm 0,0 UV-I 0 W/m 3,3 C 5,6 C 8,0 km/h (2 Bft) 97,25 %
13.12.2015 18:45 5,7 C 85 % 1023,3 hPa 0,0 l/m 2,9 km/h (1 Bft) N-NO 23 0 min 0,000 mm 0,0 UV-I 0 W/m 3,4 C 5,7 C 6,4 km/h (2 Bft) 98,29 %
13.12.2015 18:50 5,6 C 85 % 1023,3 hPa 0,0 l/m 3,1 km/h (1 Bft) N-NO 28 0 min 0,000 mm 0,0 UV-I 0 W/m 3,3 C 5,6 C 4,8 km/h (1 Bft) 97,46 %
13.12.2015 18:55 5,6 C 85 % 1023,3 hPa 0,0 l/m 1,5 km/h (1 Bft) N-NO 28 0 min 0,000 mm 0,0 UV-I 0 W/m 3,3 C 5,6 C 3,2 km/h (1 Bft) 99,15 %
13.12.2015 19:00 5,5 C 86 % 1023,3 hPa 0,0 l/m 2,6 km/h (1 Bft) NO 37 0 min 0,000 mm 0,0 UV-I 0 W/m 3,3 C 5,5 C 4,8 km/h (1 Bft) 99,17 %
13.12.2015 19:05 5,7 C 84 % 1023,5 hPa 0,0 l/m 3,5 km/h (1 Bft) NO 41 0 min 0,000 mm 0,0 UV-I 0 W/m 3,2 C 5,7 C 4,8 km/h (1 Bft) 98,31 %
13.12.2015 19:10 5,7 C 84 % 1023,4 hPa 0,0 l/m 4,2 km/h (1 Bft) O-NO 74 0 min 0,000 mm 0,0 UV-I 0 W/m 3,2 C 5,7 C 6,4 km/h (2 Bft) 99,07 %
13.12.2015 19:15 5,6 C 87 % 1023,5 hPa 0,0 l/m 3,0 km/h (1 Bft) O-NO 74 0 min 0,000 mm 0,0 UV-I 0 W/m 3,6 C 5,6 C 4,8 km/h (1 Bft) 98,31 %
13.12.2015 19:20 5,3 C 87 % 1023,5 hPa 0,0 l/m 1,1 km/h (1 Bft) O-NO 74 0 min 0,000 mm 0,0 UV-I 0 W/m 3,3 C 5,3 C 3,2 km/h (1 Bft) 99,17 %
13.12.2015 19:25 5,3 C 87 % 1023,5 hPa 0,0 l/m 1,0 km/h (0 Bft) O 86 0 min 0,000 mm 0,0 UV-I 0 W/m 3,3 C 5,3 C 4,8 km/h (1 Bft) 98,29 %
13.12.2015 19:30 5,3 C 88 % 1023,6 hPa 0,0 l/m 0,7 km/h (0 Bft) O 86 0 min 0,000 mm 0,0 UV-I 0 W/m 3,5 C 5,3 C 1,6 km/h (1 Bft) 99,15 %
13.12.2015 19:35 5,3 C 88 % 1023,7 hPa 0,0 l/m 0,8 km/h (0 Bft) O 86 0 min 0,000 mm 0,0 UV-I 0 W/m 3,5 C 5,3 C 1,6 km/h (1 Bft) 99,15 %
13.12.2015 19:40 5,3 C 88 % 1023,7 hPa 0,0 l/m 0,4 km/h (0 Bft) O 86 0 min 0,000 mm 0,0 UV-I 0 W/m 3,5 C 5,3 C 1,6 km/h (1 Bft) 100,00 %
13.12.2015 19:45 5,4 C 87 % 1023,8 hPa 0,0 l/m 1,4 km/h (1 Bft) O 86 0 min 0,000 mm 0,0 UV-I 0 W/m 3,4 C 5,4 C 3,2 km/h (1 Bft) 99,17 %
13.12.2015 19:50 5,4 C 88 % 1023,7 hPa 0,0 l/m 0,6 km/h (0 Bft) O 86 0 min 0,000 mm 0,0 UV-I 0 W/m 3,6 C 5,4 C 3,2 km/h (1 Bft) 98,29 %
13.12.2015 19:55 5,3 C 89 % 1023,7 hPa 0,0 l/m 1,7 km/h (1 Bft) O 86 0 min 0,000 mm 0,0 UV-I 0 W/m 3,6 C 5,3 C 3,2 km/h (1 Bft) 100,00 %
13.12.2015 20:00 5,3 C 88 % 1023,8 hPa 0,0 l/m 2,6 km/h (1 Bft) O-NO 71 0 min 0,000 mm 0,0 UV-I 0 W/m 3,5 C 5,3 C 4,8 km/h (1 Bft) 100,00 %
13.12.2015 20:05 5,3 C 88 % 1023,9 hPa 0,0 l/m 5,1 km/h (1 Bft) O-NO 63 0 min 0,000 mm 0,0 UV-I 0 W/m 3,5 C 5,3 C 11,3 km/h (2 Bft) 99,17 %
13.12.2015 20:10 5,3 C 87 % 1023,9 hPa 0,0 l/m 7,4 km/h (2 Bft) NO 49 0 min 0,000 mm 0,0 UV-I 0 W/m 3,3 C 4,4 C 12,9 km/h (3 Bft) 98,31 %
13.12.2015 20:15 5,3 C 88 % 1024,0 hPa 0,0 l/m 3,4 km/h (1 Bft) O-NO 62 0 min 0,000 mm 0,0 UV-I 0 W/m 3,5 C 5,3 C 6,4 km/h (2 Bft) 98,29 %
13.12.2015 20:20 5,2 C 89 % 1024,0 hPa 0,0 l/m 2,6 km/h (1 Bft) NO 50 0 min 0,000 mm 0,0 UV-I 0 W/m 3,5 C 5,2 C 4,8 km/h (1 Bft) 94,92 %
13.12.2015 20:25 5,1 C 90 % 1024,0 hPa 0,0 l/m 3,2 km/h (1 Bft) NO 50 0 min 0,000 mm 0,0 UV-I 0 W/m 3,6 C 5,1 C 4,8 km/h (1 Bft) 97,46 %
13.12.2015 20:30 5,1 C 89 % 1024,0 hPa 0,0 l/m 3,8 km/h (1 Bft) NO 51 0 min 0,000 mm 0,0 UV-I 0 W/m 3,4 C 5,1 C 4,8 km/h (1 Bft) 97,22 %
13.12.2015 20:35 5,2 C 88 % 1024,0 hPa 0,0 l/m 4,4 km/h (1 Bft) NO 51 0 min 0,000 mm 0,0 UV-I 0 W/m 3,4 C 5,2 C 6,4 km/h (2 Bft) 96,61 %
13.12.2015 20:40 5,3 C 88 % 1024,0 hPa 0,0 l/m 3,2 km/h (1 Bft) NO 51 0 min 0,000 mm 0,0 UV-I 0 W/m 3,5 C 5,3 C 4,8 km/h (1 Bft) 97,52 %
13.12.2015 20:45 5,3 C 88 % 1024,0 hPa 0,0 l/m 2,8 km/h (1 Bft) NO 52 0 min 0,000 mm 0,0 UV-I 0 W/m 3,5 C 5,3 C 4,8 km/h (1 Bft) 97,44 %
13.12.2015 20:50 5,2 C 88 % 1024,0 hPa 0,0 l/m 0,9 km/h (0 Bft) SO 133 0 min 0,000 mm 0,0 UV-I 0 W/m 3,4 C 5,2 C 3,2 km/h (1 Bft) 97,52 %
13.12.2015 20:55 5,2 C 89 % 1024,0 hPa 0,0 l/m 2,0 km/h (1 Bft) SO 134 0 min 0,000 mm 0,0 UV-I 0 W/m 3,5 C 5,2 C 3,2 km/h (1 Bft) 100,00 %
13.12.2015 21:00 5,2 C 89 % 1024,0 hPa 0,0 l/m 2,1 km/h (1 Bft) S-SO 163 0 min 0,000 mm 0,0 UV-I 0 W/m 3,5 C 5,2 C 6,4 km/h (2 Bft) 96,67 %
13.12.2015 21:05 5,1 C 89 % 1023,9 hPa 0,0 l/m 2,8 km/h (1 Bft) S-SO 167 0 min 0,000 mm 0,0 UV-I 0 W/m 3,4 C 5,1 C 6,4 km/h (2 Bft) 99,15 %
13.12.2015 21:10 5,2 C 88 % 1023,9 hPa 0,0 l/m 1,3 km/h (1 Bft) S-SO 161 0 min 0,000 mm 0,0 UV-I 0 W/m 3,4 C 5,2 C 4,8 km/h (1 Bft) 98,29 %
13.12.2015 21:15 5,2 C 88 % 1023,9 hPa 0,0 l/m 2,1 km/h (1 Bft) S-SO 156 0 min 0,000 mm 0,0 UV-I 0 W/m 3,4 C 5,2 C 4,8 km/h (1 Bft) 98,39 %
13.12.2015 21:20 5,2 C 89 % 1023,9 hPa 0,0 l/m 2,3 km/h (1 Bft) S-SO 153 0 min 0,000 mm 0,0 UV-I 0 W/m 3,5 C 5,2 C 4,8 km/h (1 Bft) 100,00 %
13.12.2015 21:25 5,2 C 88 % 1024,0 hPa 0,0 l/m 2,9 km/h (1 Bft) S-SO 161 0 min 0,000 mm 0,0 UV-I 0 W/m 3,4 C 5,2 C 6,4 km/h (2 Bft) 99,16 %
13.12.2015 21:30 5,2 C 88 % 1024,0 hPa 0,0 l/m 3,1 km/h (1 Bft) S 173 0 min 0,000 mm 0,0 UV-I 0 W/m 3,4 C 5,2 C 6,4 km/h (2 Bft) 99,17 %
13.12.2015 21:35 5,2 C 88 % 1024,0 hPa 0,0 l/m 2,5 km/h (1 Bft) S-SO 163 0 min 0,000 mm 0,0 UV-I 0 W/m 3,4 C 5,2 C 6,4 km/h (2 Bft) 99,15 %
13.12.2015 21:40 5,2 C 88 % 1024,0 hPa 0,0 l/m 1,4 km/h (1 Bft) S-SO 163 0 min 0,000 mm 0,0 UV-I 0 W/m 3,4 C 5,2 C 6,4 km/h (2 Bft) 97,46 %
13.12.2015 21:45 5,2 C 88 % 1024,0 hPa 0,0 l/m 1,2 km/h (1 Bft) S-SO 163 0 min 0,000 mm 0,0 UV-I 0 W/m 3,4 C 5,2 C 3,2 km/h (1 Bft) 99,11 %
13.12.2015 21:50 5,1 C 89 % 1024,1 hPa 0,0 l/m 0,7 km/h (0 Bft) N 5 0 min 0,000 mm 0,0 UV-I 0 W/m 3,4 C 5,1 C 1,6 km/h (1 Bft) 100,00 %
13.12.2015 21:55 5,0 C 90 % 1024,1 hPa 0,0 l/m 4,7 km/h (1 Bft) NO 51 0 min 0,000 mm 0,0 UV-I 0 W/m 3,5 C 5,0 C 8,0 km/h (2 Bft) 97,46 %
13.12.2015 22:00 5,0 C 90 % 1024,2 hPa 0,0 l/m 4,2 km/h (1 Bft) N-NO 30 0 min 0,000 mm 0,0 UV-I 0 W/m 3,5 C 5,0 C 6,4 km/h (2 Bft) 99,17 %
13.12.2015 22:05 4,9 C 90 % 1024,2 hPa 0,0 l/m 3,0 km/h (1 Bft) N-NO 29 0 min 0,000 mm 0,0 UV-I 0 W/m 3,4 C 4,9 C 4,8 km/h (1 Bft) 98,29 %
13.12.2015 22:10 4,9 C 90 % 1024,2 hPa 0,0 l/m 3,9 km/h (1 Bft) N-NO 32 0 min 0,000 mm 0,0 UV-I 0 W/m 3,4 C 4,9 C 6,4 km/h (2 Bft) 99,17 %
13.12.2015 22:15 4,9 C 90 % 1024,2 hPa 0,0 l/m 2,0 km/h (1 Bft) N-NO 32 0 min 0,000 mm 0,0 UV-I 0 W/m 3,4 C 4,9 C 3,2 km/h (1 Bft) 98,29 %
13.12.2015 22:20 5,0 C 90 % 1024,2 hPa 0,0 l/m 3,2 km/h (1 Bft) NO 46 0 min 0,000 mm 0,0 UV-I 0 W/m 3,5 C 5,0 C 4,8 km/h (1 Bft) 96,33 %
13.12.2015 22:25 5,0 C 90 % 1024,2 hPa 0,0 l/m 2,1 km/h (1 Bft) NO 46 0 min 0,000 mm 0,0 UV-I 0 W/m 3,5 C 5,0 C 3,2 km/h (1 Bft) 96,69 %
13.12.2015 22:30 5,0 C 90 % 1024,2 hPa 0,0 l/m 1,7 km/h (1 Bft) NO 46 0 min 0,000 mm 0,0 UV-I 0 W/m 3,5 C 5,0 C 3,2 km/h (1 Bft) 97,17 %
13.12.2015 22:35 4,9 C 90 % 1024,2 hPa 0,0 l/m 1,3 km/h (1 Bft) NO 46 0 min 0,000 mm 0,0 UV-I 0 W/m 3,4 C 4,9 C 3,2 km/h (1 Bft) 95,93 %
13.12.2015 22:40 4,9 C 90 % 1024,2 hPa 0,0 l/m 2,2 km/h (1 Bft) NO 46 0 min 0,000 mm 0,0 UV-I 0 W/m 3,4 C 4,9 C 3,2 km/h (1 Bft) 96,61 %
13.12.2015 22:45 4,9 C 90 % 1024,2 hPa 0,0 l/m 2,8 km/h (1 Bft) NO 45 0 min 0,000 mm 0,0 UV-I 0 W/m 3,4 C 4,9 C 4,8 km/h (1 Bft) 97,44 %
13.12.2015 22:50 4,9 C 90 % 1024,3 hPa 0,0 l/m 2,3 km/h (1 Bft) NO 45 0 min 0,000 mm 0,0 UV-I 0 W/m 3,4 C 4,9 C 4,8 km/h (1 Bft) 96,69 %
13.12.2015 22:55 4,9 C 90 % 1024,2 hPa 0,0 l/m 3,5 km/h (1 Bft) NO 42 0 min 0,000 mm 0,0 UV-I 0 W/m 3,4 C 4,9 C 4,8 km/h (1 Bft) 98,31 %
13.12.2015 23:00 4,9 C 90 % 1024,2 hPa 0,0 l/m 2,5 km/h (1 Bft) NO 42 0 min 0,000 mm 0,0 UV-I 0 W/m 3,4 C 4,9 C 3,2 km/h (1 Bft) 98,29 %
13.12.2015 23:05 4,9 C 90 % 1024,2 hPa 0,0 l/m 1,3 km/h (1 Bft) NO 42 0 min 0,000 mm 0,0 UV-I 0 W/m 3,4 C 4,9 C 1,6 km/h (1 Bft) 96,61 %
13.12.2015 23:10 4,8 C 91 % 1024,2 hPa 0,0 l/m 0,4 km/h (0 Bft) NO 42 0 min 0,000 mm 0,0 UV-I 0 W/m 3,5 C 4,8 C 1,6 km/h (1 Bft) 100,00 %
13.12.2015 23:15 4,8 C 91 % 1024,2 hPa 0,0 l/m 0,0 km/h (0 Bft) NO 42 0 min 0,000 mm 0,0 UV-I 0 W/m 3,5 C 4,8 C 0,0 km/h (0 Bft) 99,17 %
13.12.2015 23:20 4,8 C 91 % 1024,3 hPa 0,0 l/m 0,0 km/h (0 Bft) NO 42 0 min 0,000 mm 0,0 UV-I 0 W/m 3,5 C 4,8 C 0,0 km/h (0 Bft) 100,00 %
13.12.2015 23:25 4,9 C 91 % 1024,2 hPa 0,0 l/m 0,0 km/h (0 Bft) NO 42 0 min 0,000 mm 0,0 UV-I 0 W/m 3,6 C 4,9 C 0,0 km/h (0 Bft) 97,44 %
13.12.2015 23:30 4,9 C 90 % 1024,2 hPa 0,0 l/m 1,0 km/h (0 Bft) NO 42 0 min 0,000 mm 0,0 UV-I 0 W/m 3,4 C 4,9 C 3,2 km/h (1 Bft) 99,15 %
13.12.2015 23:35 4,9 C 90 % 1024,2 hPa 0,0 l/m 1,7 km/h (1 Bft) NO 42 0 min 0,000 mm 0,0 UV-I 0 W/m 3,4 C 4,9 C 3,2 km/h (1 Bft) 100,00 %
13.12.2015 23:40 4,8 C 91 % 1024,2 hPa 0,0 l/m 1,2 km/h (1 Bft) NO 42 0 min 0,000 mm 0,0 UV-I 0 W/m 3,5 C 4,8 C 3,2 km/h (1 Bft) 100,00 %
13.12.2015 23:45 4,8 C 91 % 1024,2 hPa 0,0 l/m 0,4 km/h (0 Bft) NO 42 0 min 0,000 mm 0,0 UV-I 0 W/m 3,5 C 4,8 C 1,6 km/h (1 Bft) 100,00 %
13.12.2015 23:50 4,8 C 91 % 1024,2 hPa 0,0 l/m 0,1 km/h (0 Bft) NO 42 0 min 0,000 mm 0,0 UV-I 0 W/m 3,5 C 4,8 C 1,6 km/h (1 Bft) 99,07 %
13.12.2015 23:55 4,8 C 91 % 1024,2 hPa 0,0 l/m 0,0 km/h (0 Bft) NO 42 0 min 0,000 mm 0,0 UV-I 0 W/m 3,5 C 4,8 C 1,6 km/h (1 Bft) 99,15 %
_ Min-Zeit 07:35 13:00 03:40 - 09:55 - - - - - - 07:30 07:35 18:05 14:30
Minimum _ -0,1 C 77 % 1020,0 hPa - 0,0 km/h (0 Bft) - - - - - - -0,8 C -0,1 C 0,0 km/h (0 Bft) 94,87 %
_ Max-Zeit 15:40 06:25 22:50 00:00 14:55 - - 08:00 12:05 11:00 10:35 19:55 15:45 14:10 00:00
Maximum _ 6,6 C 96 % 1024,3 hPa 0,0 l/m 12,5 km/h
W-SW (3 Bft)
- - 5 min 0,076 mm 0,5 UV-I 221 W/m 3,6 C 6,6 C 24,1 km/h
W (4 Bft)
100,00 %
Durchschnitt _ 3,6 C 88 % 1021,9 hPa #0,0 l/m 4,0 km/h (1 Bft) S - #2:30 h #0,406 mm 0,5 UV-I 105 W/m 1,8 C 3,3 C 7,5 km/h (2 Bft) 98,26 %